Historique des stations

Station météo de Vendôme

Altitude de la station : 108 m







Données météorologiques pour le 05/12/2021
Date
Heure
Températures Humidité Point de rosée Vitesse
du vent
Direction Rafales Windchill Pression Pluviométrie
Cumul
Date
Heure
Températures Humidité Point de rosée Vitesse
du vent
Direction Rafales Windchill Pression Pluviométrie
Cumul
05/12/2021 12:106.9 °C83 %4.3 °C6 km/hSO23 km/h5.41006 hPa0.0 mm
05/12/2021 12:007.0 °C84 %4.5 °C5 km/hSO37 km/h7.01006 hPa0.0 mm
05/12/2021 11:406.4 °C86 %4.2 °C5 km/hSO19 km/h6.41006 hPa0.0 mm
05/12/2021 11:305.4 °C90 %3.9 °C5 km/hSO11 km/h5.41007 hPa0.0 mm
05/12/2021 11:104.5 °C92 %3.3 °C5 km/hSO15 km/h4.51006 hPa0.0 mm
05/12/2021 11:003.6 °C94 %2.7 °C5 km/hSO16 km/h3.61006 hPa0.0 mm
05/12/2021 10:403.1 °C95 %2.3 °C4 km/hSO15 km/h3.11006 hPa0.0 mm
05/12/2021 10:302.6 °C94 %1.7 °C4 km/hSO13 km/h2.61006 hPa0.0 mm
05/12/2021 10:102.5 °C94 %1.6 °C4 km/hSO11 km/h2.51006 hPa0.0 mm
05/12/2021 10:002.4 °C94 %1.6 °C4 km/hSO15 km/h2.41006 hPa0.0 mm
05/12/2021 09:402.4 °C94 %1.5 °C4 km/hSO11 km/h2.41006 hPa0.0 mm
05/12/2021 09:302.4 °C93 %1.4 °C4 km/hSO15 km/h2.41006 hPa0.0 mm
05/12/2021 09:102.6 °C93 %1.5 °C4 km/hSO15 km/h2.61006 hPa0.0 mm
05/12/2021 09:002.6 °C93 %1.5 °C4 km/hSO11 km/h2.61006 hPa0.0 mm
05/12/2021 08:402.6 °C93 %1.6 °C4 km/hSO13 km/h2.61006 hPa0.0 mm
05/12/2021 08:302.6 °C93 %1.5 °C4 km/hSO15 km/h2.61006 hPa0.0 mm
05/12/2021 08:102.4 °C94 %1.6 °C4 km/hSO10 km/h2.41006 hPa0.0 mm
05/12/2021 08:002.4 °C93 %1.4 °C4 km/hSO13 km/h2.41005 hPa0.0 mm
05/12/2021 07:402.4 °C93 %1.4 °C4 km/hSO13 km/h2.41006 hPa0.0 mm
05/12/2021 07:302.5 °C93 %1.5 °C4 km/hSO16 km/h2.51006 hPa0.0 mm
05/12/2021 07:102.4 °C93 %1.4 °C4 km/hSO13 km/h2.41006 hPa0.0 mm
05/12/2021 07:002.4 °C93 %1.4 °C4 km/hSO11 km/h2.41005 hPa0.0 mm
05/12/2021 06:402.6 °C92 %1.4 °C4 km/hSO8 km/h2.61005 hPa0.0 mm
05/12/2021 06:302.7 °C92 %1.6 °C4 km/hSO10 km/h2.71006 hPa0.0 mm
05/12/2021 06:102.9 °C92 %1.7 °C4 km/hSO11 km/h2.91006 hPa0.0 mm
05/12/2021 06:003.2 °C92 %2.0 °C4 km/hSO15 km/h3.21006 hPa0.0 mm
05/12/2021 05:403.3 °C92 %2.2 °C3 km/hSO10 km/h3.31005 hPa0.0 mm
05/12/2021 05:303.4 °C92 %2.2 °C4 km/hSO13 km/h3.41005 hPa0.0 mm
05/12/2021 05:103.6 °C92 %2.4 °C4 km/hSO10 km/h3.61005 hPa0.0 mm
05/12/2021 05:003.6 °C92 %2.4 °C4 km/hSO13 km/h3.61005 hPa0.0 mm
05/12/2021 04:403.7 °C92 %2.5 °C4 km/hSO11 km/h3.71005 hPa0.0 mm
05/12/2021 04:303.7 °C92 %2.5 °C3 km/hSO10 km/h3.71005 hPa0.0 mm
05/12/2021 04:103.7 °C92 %2.5 °C3 km/hSO10 km/h3.71005 hPa0.0 mm
05/12/2021 04:003.7 °C93 %2.7 °C4 km/hSO11 km/h3.71006 hPa0.0 mm
05/12/2021 03:403.7 °C93 %2.7 °C4 km/hSO8 km/h3.71006 hPa0.0 mm
05/12/2021 03:303.7 °C92 %2.5 °C4 km/hSO11 km/h3.71005 hPa0.0 mm
05/12/2021 03:103.7 °C92 %2.5 °C5 km/hSO19 km/h3.71005 hPa0.0 mm
05/12/2021 03:003.7 °C92 %2.5 °C4 km/hSO15 km/h3.71005 hPa0.0 mm
05/12/2021 02:403.8 °C91 %2.5 °C4 km/hSO13 km/h3.81005 hPa0.0 mm
05/12/2021 02:303.8 °C91 %2.5 °C3 km/hSO11 km/h3.81005 hPa0.0 mm
05/12/2021 02:103.9 °C91 %2.6 °C3 km/hSO16 km/h3.91006 hPa0.0 mm
05/12/2021 02:003.9 °C91 %2.6 °C3 km/hSO13 km/h3.91006 hPa0.0 mm
05/12/2021 01:403.9 °C91 %2.6 °C3 km/hSSO10 km/h3.91006 hPa0.0 mm
05/12/2021 01:303.9 °C91 %2.6 °C3 km/hSSO11 km/h3.91006 hPa0.0 mm
05/12/2021 01:103.8 °C91 %2.5 °C2 km/hSSO6 km/h3.81007 hPa0.0 mm
05/12/2021 01:00-------0 hPa-
05/12/2021 00:304.0 °C91 %2.7 °C2 km/hSSO11 km/h4.01007 hPa2.0 mm
05/12/2021 00:104.1 °C91 %2.7 °C2 km/hSSO8 km/h4.11007 hPa1.8 mm
05/12/2021 00:003.9 °C92 %2.7 °C2 km/hSSO8 km/h3.91007 hPa1.8 mm


Minima :

Température : 2.4 °C
Humidité : 83 %
Point de rosée : 1.4 °C
Vent moyen : 2 km/h
Windchill : 2.4
Pression atm. : 0 hPa
Maxima :

Température : 7.0 °C
Humidité : 95 %
Point de rosée : 4.5 °C
Vent moyen : 6 km/h
Windchill : 7.0
Pression atm. : 1007 hPa
Rafales max : 37 km/h
Cumul de pluie sur 24H : 2.0 mm

Vendôme est une commune du département Loir-et-Cher (41).
La station météorologique du réseau de l'association la plus proche de Vendôme n'a pas encore été identifiée.



Icône Facebook Association Météo Centre Icône Twitter Association Météo Centre Icône Chaîne Youtube Association Météo Centre Icône contact Association Météo Centre Icône Insta Association Météo Centre